sensor_id;sensor_type;location;lat;lon;timestamp;P1;durP1;ratioP1;P2;durP2;ratioP2
13279;SDS011;6708;49.814;8.652;2023-02-18T00:01:39;2.60;;;2.50;;
13279;SDS011;6708;49.814;8.652;2023-02-18T00:04:11;2.97;;;2.87;;
13279;SDS011;6708;49.814;8.652;2023-02-18T00:06:39;3.10;;;3.00;;
13279;SDS011;6708;49.814;8.652;2023-02-18T00:09:09;2.80;;;2.70;;
13279;SDS011;6708;49.814;8.652;2023-02-18T00:11:37;3.00;;;2.90;;
13279;SDS011;6708;49.814;8.652;2023-02-18T00:14:07;3.10;;;2.97;;
13279;SDS011;6708;49.814;8.652;2023-02-18T00:16:39;3.10;;;3.00;;
13279;SDS011;6708;49.814;8.652;2023-02-18T00:19:09;3.13;;;3.03;;
13279;SDS011;6708;49.814;8.652;2023-02-18T00:21:41;3.67;;;3.40;;
13279;SDS011;6708;49.814;8.652;2023-02-18T00:24:10;3.70;;;3.50;;
13279;SDS011;6708;49.814;8.652;2023-02-18T00:26:41;3.13;;;3.03;;
13279;SDS011;6708;49.814;8.652;2023-02-18T00:29:10;3.50;;;3.37;;
13279;SDS011;6708;49.814;8.652;2023-02-18T00:31:40;3.80;;;3.57;;
13279;SDS011;6708;49.814;8.652;2023-02-18T00:34:08;3.73;;;3.53;;
13279;SDS011;6708;49.814;8.652;2023-02-18T00:36:40;3.73;;;3.57;;
13279;SDS011;6708;49.814;8.652;2023-02-18T00:39:10;3.43;;;3.33;;
13279;SDS011;6708;49.814;8.652;2023-02-18T00:41:39;3.97;;;3.67;;
13279;SDS011;6708;49.814;8.652;2023-02-18T00:44:08;4.10;;;3.90;;
13279;SDS011;6708;49.814;8.652;2023-02-18T00:46:37;3.53;;;3.43;;
13279;SDS011;6708;49.814;8.652;2023-02-18T00:49:06;4.10;;;3.90;;
13279;SDS011;6708;49.814;8.652;2023-02-18T00:51:37;4.03;;;3.83;;
13279;SDS011;6708;49.814;8.652;2023-02-18T00:54:06;4.20;;;4.00;;
13279;SDS011;6708;49.814;8.652;2023-02-18T00:56:34;4.33;;;4.03;;
13279;SDS011;6708;49.814;8.652;2023-02-18T00:59:03;4.43;;;4.20;;
13279;SDS011;6708;49.814;8.652;2023-02-18T01:01:32;4.77;;;4.47;;
13279;SDS011;6708;49.814;8.652;2023-02-18T01:04:00;4.60;;;4.40;;
13279;SDS011;6708;49.814;8.652;2023-02-18T01:06:30;4.20;;;4.00;;
13279;SDS011;6708;49.814;8.652;2023-02-18T01:09:03;4.70;;;4.50;;
13279;SDS011;6708;49.814;8.652;2023-02-18T01:11:32;4.10;;;3.90;;
13279;SDS011;6708;49.814;8.652;2023-02-18T01:14:00;4.77;;;4.37;;
13279;SDS011;6708;49.814;8.652;2023-02-18T01:16:30;4.03;;;3.80;;
13279;SDS011;6708;49.814;8.652;2023-02-18T01:18:59;4.47;;;4.23;;
13279;SDS011;6708;49.814;8.652;2023-02-18T01:21:27;4.87;;;4.57;;
13279;SDS011;6708;49.814;8.652;2023-02-18T01:23:56;4.17;;;3.97;;
13279;SDS011;6708;49.814;8.652;2023-02-18T01:26:27;4.10;;;3.90;;
13279;SDS011;6708;49.814;8.652;2023-02-18T01:28:56;4.23;;;3.97;;
13279;SDS011;6708;49.814;8.652;2023-02-18T01:31:24;4.50;;;4.30;;
13279;SDS011;6708;49.814;8.652;2023-02-18T01:33:53;4.33;;;4.13;;
13279;SDS011;6708;49.814;8.652;2023-02-18T01:36:21;3.80;;;3.60;;
13279;SDS011;6708;49.814;8.652;2023-02-18T01:38:54;3.80;;;3.60;;
13279;SDS011;6708;49.814;8.652;2023-02-18T01:41:23;4.10;;;3.90;;
13279;SDS011;6708;49.814;8.652;2023-02-18T01:46:44;3.97;;;3.80;;
13279;SDS011;6708;49.814;8.652;2023-02-18T01:49:15;4.13;;;3.83;;
13279;SDS011;6708;49.814;8.652;2023-02-18T01:51:46;3.87;;;3.60;;
13279;SDS011;6708;49.814;8.652;2023-02-18T01:54:18;3.83;;;3.63;;
13279;SDS011;6708;49.814;8.652;2023-02-18T01:56:52;3.50;;;3.40;;
13279;SDS011;6708;49.814;8.652;2023-02-18T01:59:26;3.90;;;3.70;;
13279;SDS011;6708;49.814;8.652;2023-02-18T02:01:57;3.70;;;3.60;;
13279;SDS011;6708;49.814;8.652;2023-02-18T02:04:28;3.40;;;3.30;;
13279;SDS011;6708;49.814;8.652;2023-02-18T02:06:57;3.67;;;3.57;;
13279;SDS011;6708;49.814;8.652;2023-02-18T02:09:26;3.63;;;3.47;;
13279;SDS011;6708;49.814;8.652;2023-02-18T02:12:03;3.67;;;3.47;;
13279;SDS011;6708;49.814;8.652;2023-02-18T02:14:59;3.57;;;3.47;;
13279;SDS011;6708;49.814;8.652;2023-02-18T02:17:40;3.63;;;3.43;;
13279;SDS011;6708;49.814;8.652;2023-02-18T02:32:20;4.67;;;4.47;;
13279;SDS011;6708;49.814;8.652;2023-02-18T02:35:07;4.53;;;4.23;;
13279;SDS011;6708;49.814;8.652;2023-02-18T02:37:38;4.60;;;4.33;;
13279;SDS011;6708;49.814;8.652;2023-02-18T02:40:14;4.30;;;4.10;;
13279;SDS011;6708;49.814;8.652;2023-02-18T02:42:51;4.80;;;4.60;;
13279;SDS011;6708;49.814;8.652;2023-02-18T02:45:32;4.37;;;4.17;;
13279;SDS011;6708;49.814;8.652;2023-02-18T02:48:09;4.50;;;4.30;;
13279;SDS011;6708;49.814;8.652;2023-02-18T02:50:46;4.63;;;4.30;;
13279;SDS011;6708;49.814;8.652;2023-02-18T02:53:20;4.83;;;4.53;;
13279;SDS011;6708;49.814;8.652;2023-02-18T02:55:52;4.73;;;4.53;;
13279;SDS011;6708;49.814;8.652;2023-02-18T02:58:22;4.47;;;4.20;;
13279;SDS011;6708;49.814;8.652;2023-02-18T03:00:58;4.93;;;4.63;;
13279;SDS011;6708;49.814;8.652;2023-02-18T03:03:36;4.73;;;4.53;;
13279;SDS011;6708;49.814;8.652;2023-02-18T03:06:32;4.80;;;4.40;;
13279;SDS011;6708;49.814;8.652;2023-02-18T03:09:09;3.87;;;3.77;;
13279;SDS011;6708;49.814;8.652;2023-02-18T03:11:45;3.90;;;3.70;;
13279;SDS011;6708;49.814;8.652;2023-02-18T03:14:21;3.73;;;3.53;;
13279;SDS011;6708;49.814;8.652;2023-02-18T03:16:57;3.53;;;3.33;;
13279;SDS011;6708;49.814;8.652;2023-02-18T03:19:28;3.93;;;3.73;;
13279;SDS011;6708;49.814;8.652;2023-02-18T03:22:03;4.03;;;3.83;;
13279;SDS011;6708;49.814;8.652;2023-02-18T03:24:35;4.20;;;4.00;;
13279;SDS011;6708;49.814;8.652;2023-02-18T03:27:07;4.50;;;4.20;;
13279;SDS011;6708;49.814;8.652;2023-02-18T03:29:37;4.03;;;3.83;;
13279;SDS011;6708;49.814;8.652;2023-02-18T03:32:07;4.57;;;4.30;;
13279;SDS011;6708;49.814;8.652;2023-02-18T03:34:39;4.60;;;4.33;;
13279;SDS011;6708;49.814;8.652;2023-02-18T03:37:12;3.97;;;3.77;;
13279;SDS011;6708;49.814;8.652;2023-02-18T03:39:42;4.30;;;4.00;;
13279;SDS011;6708;49.814;8.652;2023-02-18T03:42:14;4.37;;;4.17;;
13279;SDS011;6708;49.814;8.652;2023-02-18T03:44:43;4.90;;;4.60;;
13279;SDS011;6708;49.814;8.652;2023-02-18T03:47:11;4.67;;;4.47;;
13279;SDS011;6708;49.814;8.652;2023-02-18T03:49:40;5.03;;;4.67;;
13279;SDS011;6708;49.814;8.652;2023-02-18T03:52:08;5.03;;;4.73;;
13279;SDS011;6708;49.814;8.652;2023-02-18T03:54:39;5.23;;;4.90;;
13279;SDS011;6708;49.814;8.652;2023-02-18T03:57:08;4.80;;;4.47;;
13279;SDS011;6708;49.814;8.652;2023-02-18T03:59:36;5.07;;;4.77;;
13279;SDS011;6708;49.814;8.652;2023-02-18T04:02:05;4.80;;;4.43;;
13279;SDS011;6708;49.814;8.652;2023-02-18T04:04:33;4.57;;;4.37;;
13279;SDS011;6708;49.814;8.652;2023-02-18T04:07:02;4.57;;;4.27;;
13279;SDS011;6708;49.814;8.652;2023-02-18T04:09:33;4.27;;;4.00;;
13279;SDS011;6708;49.814;8.652;2023-02-18T04:12:01;4.63;;;4.33;;
13279;SDS011;6708;49.814;8.652;2023-02-18T04:14:30;4.80;;;4.50;;
13279;SDS011;6708;49.814;8.652;2023-02-18T04:16:59;4.87;;;4.60;;
13279;SDS011;6708;49.814;8.652;2023-02-18T04:19:28;4.80;;;4.50;;
13279;SDS011;6708;49.814;8.652;2023-02-18T04:21:56;4.57;;;4.37;;
13279;SDS011;6708;49.814;8.652;2023-02-18T04:24:25;4.90;;;4.60;;
13279;SDS011;6708;49.814;8.652;2023-02-18T04:26:56;4.50;;;4.20;;
13279;SDS011;6708;49.814;8.652;2023-02-18T04:29:24;4.37;;;4.17;;
13279;SDS011;6708;49.814;8.652;2023-02-18T04:31:53;4.70;;;4.50;;
13279;SDS011;6708;49.814;8.652;2023-02-18T04:34:21;4.60;;;4.30;;
13279;SDS011;6708;49.814;8.652;2023-02-18T04:36:50;5.03;;;4.63;;
13279;SDS011;6708;49.814;8.652;2023-02-18T04:39:19;4.50;;;4.20;;
13279;SDS011;6708;49.814;8.652;2023-02-18T04:41:47;4.37;;;4.07;;
13279;SDS011;6708;49.814;8.652;2023-02-18T04:44:18;4.10;;;3.90;;
13279;SDS011;6708;49.814;8.652;2023-02-18T04:46:47;4.70;;;4.07;;
13279;SDS011;6708;49.814;8.652;2023-02-18T04:49:15;4.83;;;4.33;;
13279;SDS011;6708;49.814;8.652;2023-02-18T04:51:43;4.33;;;4.07;;
13279;SDS011;6708;49.814;8.652;2023-02-18T04:54:12;3.63;;;3.33;;
13279;SDS011;6708;49.814;8.652;2023-02-18T04:56:41;3.10;;;3.00;;
13279;SDS011;6708;49.814;8.652;2023-02-18T04:59:09;3.23;;;3.03;;
13279;SDS011;6708;49.814;8.652;2023-02-18T05:01:41;3.20;;;3.10;;
13279;SDS011;6708;49.814;8.652;2023-02-18T05:04:09;3.00;;;2.90;;
13279;SDS011;6708;49.814;8.652;2023-02-18T05:06:38;2.97;;;2.87;;
13279;SDS011;6708;49.814;8.652;2023-02-18T05:09:07;3.10;;;2.90;;
13279;SDS011;6708;49.814;8.652;2023-02-18T05:11:35;2.97;;;2.80;;
13279;SDS011;6708;49.814;8.652;2023-02-18T05:14:04;3.17;;;2.97;;
13279;SDS011;6708;49.814;8.652;2023-02-18T05:16:33;2.80;;;2.70;;
13279;SDS011;6708;49.814;8.652;2023-02-18T05:19:04;3.20;;;3.00;;
13279;SDS011;6708;49.814;8.652;2023-02-18T05:21:32;3.40;;;3.20;;
13279;SDS011;6708;49.814;8.652;2023-02-18T05:24:01;3.43;;;3.23;;
13279;SDS011;6708;49.814;8.652;2023-02-18T05:26:29;3.40;;;3.20;;
13279;SDS011;6708;49.814;8.652;2023-02-18T05:28:58;4.13;;;3.93;;
13279;SDS011;6708;49.814;8.652;2023-02-18T05:31:26;3.97;;;3.77;;
13279;SDS011;6708;49.814;8.652;2023-02-18T05:33:55;4.20;;;3.93;;
13279;SDS011;6708;49.814;8.652;2023-02-18T05:36:26;5.17;;;4.73;;
13279;SDS011;6708;49.814;8.652;2023-02-18T05:38:54;4.80;;;4.50;;
13279;SDS011;6708;49.814;8.652;2023-02-18T05:41:23;5.00;;;4.60;;
13279;SDS011;6708;49.814;8.652;2023-02-18T05:43:51;4.57;;;4.30;;
13279;SDS011;6708;49.814;8.652;2023-02-18T05:46:32;4.70;;;4.43;;
13279;SDS011;6708;49.814;8.652;2023-02-18T05:49:01;4.20;;;3.93;;
13279;SDS011;6708;49.814;8.652;2023-02-18T05:51:32;4.67;;;4.30;;
13279;SDS011;6708;49.814;8.652;2023-02-18T05:54:01;4.33;;;4.13;;
13279;SDS011;6708;49.814;8.652;2023-02-18T05:56:29;4.03;;;3.83;;
13279;SDS011;6708;49.814;8.652;2023-02-18T05:58:58;4.50;;;4.30;;
13279;SDS011;6708;49.814;8.652;2023-02-18T06:01:26;4.07;;;3.80;;
13279;SDS011;6708;49.814;8.652;2023-02-18T06:03:56;3.70;;;3.50;;
13279;SDS011;6708;49.814;8.652;2023-02-18T06:06:24;4.60;;;3.27;;
13279;SDS011;6708;49.814;8.652;2023-02-18T06:08:56;3.00;;;2.80;;
13279;SDS011;6708;49.814;8.652;2023-02-18T06:11:24;3.03;;;2.83;;
13279;SDS011;6708;49.814;8.652;2023-02-18T06:13:52;2.87;;;2.77;;
13279;SDS011;6708;49.814;8.652;2023-02-18T06:16:21;2.70;;;2.60;;
13279;SDS011;6708;49.814;8.652;2023-02-18T06:18:50;2.73;;;2.63;;
13279;SDS011;6708;49.814;8.652;2023-02-18T06:21:18;2.80;;;2.60;;
13279;SDS011;6708;49.814;8.652;2023-02-18T06:23:46;2.73;;;2.63;;
13279;SDS011;6708;49.814;8.652;2023-02-18T06:26:18;2.70;;;2.53;;
13279;SDS011;6708;49.814;8.652;2023-02-18T06:28:46;2.63;;;2.53;;
13279;SDS011;6708;49.814;8.652;2023-02-18T06:31:15;2.90;;;2.80;;
13279;SDS011;6708;49.814;8.652;2023-02-18T06:33:43;2.90;;;2.80;;
13279;SDS011;6708;49.814;8.652;2023-02-18T06:36:12;3.27;;;3.07;;
13279;SDS011;6708;49.814;8.652;2023-02-18T06:38:41;3.10;;;3.00;;
13279;SDS011;6708;49.814;8.652;2023-02-18T06:41:11;3.20;;;3.00;;
13279;SDS011;6708;49.814;8.652;2023-02-18T06:43:43;3.53;;;3.33;;
13279;SDS011;6708;49.814;8.652;2023-02-18T06:46:11;3.47;;;3.27;;
13279;SDS011;6708;49.814;8.652;2023-02-18T06:48:40;3.40;;;3.20;;
13279;SDS011;6708;49.814;8.652;2023-02-18T06:51:08;3.77;;;3.57;;
13279;SDS011;6708;49.814;8.652;2023-02-18T06:53:37;4.07;;;3.77;;
13279;SDS011;6708;49.814;8.652;2023-02-18T06:56:05;3.40;;;3.20;;
13279;SDS011;6708;49.814;8.652;2023-02-18T06:58:34;3.20;;;3.10;;
13279;SDS011;6708;49.814;8.652;2023-02-18T07:01:05;3.53;;;3.30;;
13279;SDS011;6708;49.814;8.652;2023-02-18T07:03:33;3.40;;;3.23;;
13279;SDS011;6708;49.814;8.652;2023-02-18T07:06:02;3.83;;;3.50;;
13279;SDS011;6708;49.814;8.652;2023-02-18T07:08:31;3.67;;;3.47;;
13279;SDS011;6708;49.814;8.652;2023-02-18T07:11:00;3.60;;;3.40;;
13279;SDS011;6708;49.814;8.652;2023-02-18T07:13:29;4.00;;;3.80;;
13279;SDS011;6708;49.814;8.652;2023-02-18T07:15:57;3.30;;;3.10;;
13279;SDS011;6708;49.814;8.652;2023-02-18T07:18:28;4.07;;;3.77;;
13279;SDS011;6708;49.814;8.652;2023-02-18T07:20:57;4.23;;;3.93;;
13279;SDS011;6708;49.814;8.652;2023-02-18T07:23:25;3.93;;;3.73;;
13279;SDS011;6708;49.814;8.652;2023-02-18T07:26:01;4.10;;;3.80;;
13279;SDS011;6708;49.814;8.652;2023-02-18T07:28:30;3.90;;;3.70;;
13279;SDS011;6708;49.814;8.652;2023-02-18T07:30:59;3.93;;;3.63;;
13279;SDS011;6708;49.814;8.652;2023-02-18T07:33:30;4.37;;;4.17;;
13279;SDS011;6708;49.814;8.652;2023-02-18T07:35:59;4.27;;;4.07;;
13279;SDS011;6708;49.814;8.652;2023-02-18T07:38:29;4.80;;;4.50;;
13279;SDS011;6708;49.814;8.652;2023-02-18T07:40:58;3.93;;;3.73;;
13279;SDS011;6708;49.814;8.652;2023-02-18T07:43:26;3.80;;;3.60;;
13279;SDS011;6708;49.814;8.652;2023-02-18T07:45:55;3.87;;;3.67;;
13279;SDS011;6708;49.814;8.652;2023-02-18T07:48:23;5.07;;;4.67;;
13279;SDS011;6708;49.814;8.652;2023-02-18T07:50:54;5.43;;;5.07;;
13279;SDS011;6708;49.814;8.652;2023-02-18T07:53:23;5.57;;;5.00;;
13279;SDS011;6708;49.814;8.652;2023-02-18T07:55:51;5.23;;;4.83;;
13279;SDS011;6708;49.814;8.652;2023-02-18T07:58:20;5.83;;;5.40;;
13279;SDS011;6708;49.814;8.652;2023-02-18T08:00:50;6.03;;;5.53;;
13279;SDS011;6708;49.814;8.652;2023-02-18T08:03:21;6.13;;;5.50;;
13279;SDS011;6708;49.814;8.652;2023-02-18T08:05:51;5.57;;;5.17;;
13279;SDS011;6708;49.814;8.652;2023-02-18T08:08:23;5.93;;;5.53;;
13279;SDS011;6708;49.814;8.652;2023-02-18T08:10:53;6.50;;;5.87;;
13279;SDS011;6708;49.814;8.652;2023-02-18T08:13:23;6.37;;;5.87;;
13279;SDS011;6708;49.814;8.652;2023-02-18T08:15:53;5.53;;;5.13;;
13279;SDS011;6708;49.814;8.652;2023-02-18T08:18:22;5.77;;;5.47;;
13279;SDS011;6708;49.814;8.652;2023-02-18T08:20:51;6.00;;;5.50;;
13279;SDS011;6708;49.814;8.652;2023-02-18T08:23:23;5.70;;;5.40;;
13279;SDS011;6708;49.814;8.652;2023-02-18T08:25:52;7.83;;;5.77;;
13279;SDS011;6708;49.814;8.652;2023-02-18T08:28:21;5.63;;;5.23;;
13279;SDS011;6708;49.814;8.652;2023-02-18T08:30:51;5.60;;;5.20;;
13279;SDS011;6708;49.814;8.652;2023-02-18T08:33:20;5.87;;;5.37;;
13279;SDS011;6708;49.814;8.652;2023-02-18T08:35:50;4.93;;;4.63;;
13279;SDS011;6708;49.814;8.652;2023-02-18T08:38:23;5.57;;;5.17;;
13279;SDS011;6708;49.814;8.652;2023-02-18T08:41:00;4.70;;;4.40;;
13279;SDS011;6708;49.814;8.652;2023-02-18T08:43:28;4.23;;;4.03;;
13279;SDS011;6708;49.814;8.652;2023-02-18T08:45:57;4.10;;;3.77;;
13279;SDS011;6708;49.814;8.652;2023-02-18T08:48:26;3.90;;;3.70;;
13279;SDS011;6708;49.814;8.652;2023-02-18T08:50:55;3.20;;;3.00;;
13279;SDS011;6708;49.814;8.652;2023-02-18T08:53:26;3.33;;;3.13;;
13279;SDS011;6708;49.814;8.652;2023-02-18T08:55:55;3.20;;;3.00;;
13279;SDS011;6708;49.814;8.652;2023-02-18T08:58:23;3.30;;;3.10;;
13279;SDS011;6708;49.814;8.652;2023-02-18T09:00:52;3.20;;;2.80;;
13279;SDS011;6708;49.814;8.652;2023-02-18T09:03:20;3.03;;;2.73;;
13279;SDS011;6708;49.814;8.652;2023-02-18T09:05:49;2.83;;;2.63;;
13279;SDS011;6708;49.814;8.652;2023-02-18T09:08:17;2.53;;;2.43;;
13279;SDS011;6708;49.814;8.652;2023-02-18T09:10:48;2.77;;;2.60;;
13279;SDS011;6708;49.814;8.652;2023-02-18T09:13:17;3.00;;;2.57;;
13279;SDS011;6708;49.814;8.652;2023-02-18T09:15:45;2.07;;;1.97;;
13279;SDS011;6708;49.814;8.652;2023-02-18T09:18:13;2.43;;;2.33;;
13279;SDS011;6708;49.814;8.652;2023-02-18T09:20:45;2.73;;;2.53;;
13279;SDS011;6708;49.814;8.652;2023-02-18T09:23:13;2.80;;;2.60;;
13279;SDS011;6708;49.814;8.652;2023-02-18T09:25:42;2.23;;;2.13;;
13279;SDS011;6708;49.814;8.652;2023-02-18T09:28:13;2.63;;;2.43;;
13279;SDS011;6708;49.814;8.652;2023-02-18T09:30:41;3.00;;;2.80;;
13279;SDS011;6708;49.814;8.652;2023-02-18T09:33:10;3.13;;;2.70;;
13279;SDS011;6708;49.814;8.652;2023-02-18T09:35:38;2.50;;;2.30;;
13279;SDS011;6708;49.814;8.652;2023-02-18T09:38:07;2.47;;;2.37;;
13279;SDS011;6708;49.814;8.652;2023-02-18T09:40:37;2.80;;;2.33;;
13279;SDS011;6708;49.814;8.652;2023-02-18T09:43:08;2.70;;;2.60;;
13279;SDS011;6708;49.814;8.652;2023-02-18T09:45:45;2.73;;;2.53;;
13279;SDS011;6708;49.814;8.652;2023-02-18T09:48:14;2.80;;;2.60;;
13279;SDS011;6708;49.814;8.652;2023-02-18T09:50:42;2.67;;;2.47;;
13279;SDS011;6708;49.814;8.652;2023-02-18T09:53:16;2.80;;;2.60;;
13279;SDS011;6708;49.814;8.652;2023-02-18T09:55:46;3.07;;;2.60;;
13279;SDS011;6708;49.814;8.652;2023-02-18T09:58:18;2.80;;;2.60;;
13279;SDS011;6708;49.814;8.652;2023-02-18T10:00:48;2.50;;;2.40;;
13279;SDS011;6708;49.814;8.652;2023-02-18T10:03:20;2.23;;;2.13;;
13279;SDS011;6708;49.814;8.652;2023-02-18T10:05:53;2.77;;;2.57;;
13279;SDS011;6708;49.814;8.652;2023-02-18T10:08:24;2.17;;;2.07;;
13279;SDS011;6708;49.814;8.652;2023-02-18T10:10:56;2.63;;;2.43;;
13279;SDS011;6708;49.814;8.652;2023-02-18T10:13:28;2.27;;;2.17;;
13279;SDS011;6708;49.814;8.652;2023-02-18T10:15:58;2.33;;;2.23;;
13279;SDS011;6708;49.814;8.652;2023-02-18T10:18:27;2.47;;;2.27;;
13279;SDS011;6708;49.814;8.652;2023-02-18T10:21:02;2.27;;;2.13;;
13279;SDS011;6708;49.814;8.652;2023-02-18T10:23:33;2.40;;;2.20;;
13279;SDS011;6708;49.814;8.652;2023-02-18T10:26:04;2.13;;;2.03;;
13279;SDS011;6708;49.814;8.652;2023-02-18T10:28:37;2.47;;;2.37;;
13279;SDS011;6708;49.814;8.652;2023-02-18T10:31:06;4.30;;;2.30;;
13279;SDS011;6708;49.814;8.652;2023-02-18T10:33:38;2.00;;;1.90;;
13279;SDS011;6708;49.814;8.652;2023-02-18T10:36:17;2.30;;;2.20;;
13279;SDS011;6708;49.814;8.652;2023-02-18T10:38:57;2.40;;;2.30;;
13279;SDS011;6708;49.814;8.652;2023-02-18T10:41:32;1.80;;;1.70;;
13279;SDS011;6708;49.814;8.652;2023-02-18T10:44:09;1.90;;;1.80;;
13279;SDS011;6708;49.814;8.652;2023-02-18T10:46:43;3.43;;;2.20;;
13279;SDS011;6708;49.814;8.652;2023-02-18T10:49:26;2.00;;;1.90;;
13279;SDS011;6708;49.814;8.652;2023-02-18T10:52:08;2.07;;;1.97;;
13279;SDS011;6708;49.814;8.652;2023-02-18T10:54:47;2.10;;;2.00;;
13279;SDS011;6708;49.814;8.652;2023-02-18T10:57:21;2.20;;;2.10;;
13279;SDS011;6708;49.814;8.652;2023-02-18T10:59:59;2.10;;;2.00;;
13279;SDS011;6708;49.814;8.652;2023-02-18T11:02:35;1.90;;;1.80;;
13279;SDS011;6708;49.814;8.652;2023-02-18T11:05:05;1.90;;;1.70;;
13279;SDS011;6708;49.814;8.652;2023-02-18T11:07:45;2.20;;;1.53;;
13279;SDS011;6708;49.814;8.652;2023-02-18T11:10:15;1.43;;;1.37;;
13279;SDS011;6708;49.814;8.652;2023-02-18T11:12:46;1.30;;;1.20;;
13279;SDS011;6708;49.814;8.652;2023-02-18T11:15:21;1.30;;;1.27;;
13279;SDS011;6708;49.814;8.652;2023-02-18T11:17:51;1.33;;;1.23;;
13279;SDS011;6708;49.814;8.652;2023-02-18T11:20:26;3.10;;;1.20;;
13279;SDS011;6708;49.814;8.652;2023-02-18T11:22:57;1.77;;;0.80;;
13279;SDS011;6708;49.814;8.652;2023-02-18T11:25:27;1.00;;;1.00;;
13279;SDS011;6708;49.814;8.652;2023-02-18T11:28:00;1.27;;;1.17;;
13279;SDS011;6708;49.814;8.652;2023-02-18T11:30:33;0.60;;;0.60;;
13279;SDS011;6708;49.814;8.652;2023-02-18T11:33:05;0.70;;;0.70;;
13279;SDS011;6708;49.814;8.652;2023-02-18T11:35:34;1.10;;;1.00;;
13279;SDS011;6708;49.814;8.652;2023-02-18T11:38:12;0.80;;;0.80;;
13279;SDS011;6708;49.814;8.652;2023-02-18T11:40:52;0.83;;;0.83;;
13279;SDS011;6708;49.814;8.652;2023-02-18T11:43:21;0.70;;;0.70;;
13279;SDS011;6708;49.814;8.652;2023-02-18T11:46:06;0.80;;;0.80;;
13279;SDS011;6708;49.814;8.652;2023-02-18T11:48:36;1.70;;;0.70;;
13279;SDS011;6708;49.814;8.652;2023-02-18T11:51:04;1.37;;;0.80;;
13279;SDS011;6708;49.814;8.652;2023-02-18T11:53:34;1.93;;;0.83;;
13279;SDS011;6708;49.814;8.652;2023-02-18T11:56:03;3.13;;;0.90;;
13279;SDS011;6708;49.814;8.652;2023-02-18T11:58:35;0.90;;;0.90;;
13279;SDS011;6708;49.814;8.652;2023-02-18T12:01:10;1.33;;;1.00;;
13279;SDS011;6708;49.814;8.652;2023-02-18T12:03:42;1.43;;;1.27;;
13279;SDS011;6708;49.814;8.652;2023-02-18T12:06:17;1.37;;;1.27;;
13279;SDS011;6708;49.814;8.652;2023-02-18T12:08:50;1.27;;;1.27;;
13279;SDS011;6708;49.814;8.652;2023-02-18T12:11:22;2.10;;;1.77;;
13279;SDS011;6708;49.814;8.652;2023-02-18T12:13:54;0.90;;;0.90;;
13279;SDS011;6708;49.814;8.652;2023-02-18T12:16:29;2.53;;;2.30;;
13279;SDS011;6708;49.814;8.652;2023-02-18T12:19:12;2.07;;;1.60;;
13279;SDS011;6708;49.814;8.652;2023-02-18T12:21:52;0.80;;;0.80;;
13279;SDS011;6708;49.814;8.652;2023-02-18T12:24:29;0.80;;;0.80;;
13279;SDS011;6708;49.814;8.652;2023-02-18T12:27:05;1.33;;;0.87;;
13279;SDS011;6708;49.814;8.652;2023-02-18T12:29:40;0.73;;;0.73;;
13279;SDS011;6708;49.814;8.652;2023-02-18T12:32:22;1.00;;;1.00;;
13279;SDS011;6708;49.814;8.652;2023-02-18T12:34:57;5.03;;;1.80;;
13279;SDS011;6708;49.814;8.652;2023-02-18T12:37:43;1.67;;;1.30;;
13279;SDS011;6708;49.814;8.652;2023-02-18T12:40:35;0.80;;;0.80;;
13279;SDS011;6708;49.814;8.652;2023-02-18T12:43:11;1.50;;;1.40;;
13279;SDS011;6708;49.814;8.652;2023-02-18T12:45:53;2.10;;;1.50;;
13279;SDS011;6708;49.814;8.652;2023-02-18T12:48:35;1.47;;;1.37;;
13279;SDS011;6708;49.814;8.652;2023-02-18T12:51:12;1.57;;;1.47;;
13279;SDS011;6708;49.814;8.652;2023-02-18T12:53:55;1.43;;;1.33;;
13279;SDS011;6708;49.814;8.652;2023-02-18T12:59:34;1.53;;;1.30;;
13279;SDS011;6708;49.814;8.652;2023-02-18T13:02:37;2.00;;;1.90;;
13279;SDS011;6708;49.814;8.652;2023-02-18T13:05:17;1.20;;;1.20;;
13279;SDS011;6708;49.814;8.652;2023-02-18T13:08:01;1.80;;;1.47;;
13279;SDS011;6708;49.814;8.652;2023-02-18T13:10:44;1.50;;;1.43;;
13279;SDS011;6708;49.814;8.652;2023-02-18T13:13:33;1.73;;;1.53;;
13279;SDS011;6708;49.814;8.652;2023-02-18T13:16:05;1.60;;;1.50;;
13279;SDS011;6708;49.814;8.652;2023-02-18T13:18:38;1.30;;;1.30;;
13279;SDS011;6708;49.814;8.652;2023-02-18T13:21:11;0.90;;;0.90;;
13279;SDS011;6708;49.814;8.652;2023-02-18T13:23:42;2.97;;;1.40;;
13279;SDS011;6708;49.814;8.652;2023-02-18T13:26:15;1.07;;;0.97;;
13279;SDS011;6708;49.814;8.652;2023-02-18T13:28:47;1.27;;;1.17;;
13279;SDS011;6708;49.814;8.652;2023-02-18T13:31:27;1.60;;;1.50;;
13279;SDS011;6708;49.814;8.652;2023-02-18T13:34:03;1.20;;;1.20;;
13279;SDS011;6708;49.814;8.652;2023-02-18T13:36:43;1.50;;;1.40;;
13279;SDS011;6708;49.814;8.652;2023-02-18T13:39:17;1.60;;;1.50;;
13279;SDS011;6708;49.814;8.652;2023-02-18T13:41:48;1.37;;;1.27;;
13279;SDS011;6708;49.814;8.652;2023-02-18T13:44:38;1.23;;;1.13;;
13279;SDS011;6708;49.814;8.652;2023-02-18T13:47:07;2.33;;;1.23;;
13279;SDS011;6708;49.814;8.652;2023-02-18T13:49:37;4.83;;;4.00;;
13279;SDS011;6708;49.814;8.652;2023-02-18T13:52:15;2.60;;;1.63;;
13279;SDS011;6708;49.814;8.652;2023-02-18T13:54:45;1.20;;;1.20;;
13279;SDS011;6708;49.814;8.652;2023-02-18T13:57:16;1.80;;;1.70;;
13279;SDS011;6708;49.814;8.652;2023-02-18T13:59:48;1.10;;;1.10;;
13279;SDS011;6708;49.814;8.652;2023-02-18T14:07:52;2.30;;;1.83;;
13279;SDS011;6708;49.814;8.652;2023-02-18T14:10:34;2.20;;;1.63;;
13279;SDS011;6708;49.814;8.652;2023-02-18T14:15:55;1.20;;;1.20;;
13279;SDS011;6708;49.814;8.652;2023-02-18T14:18:27;1.07;;;1.07;;
13279;SDS011;6708;49.814;8.652;2023-02-18T14:23:59;1.23;;;0.90;;
13279;SDS011;6708;49.814;8.652;2023-02-18T14:26:32;1.10;;;1.00;;
13279;SDS011;6708;49.814;8.652;2023-02-18T14:29:10;1.60;;;1.50;;
13279;SDS011;6708;49.814;8.652;2023-02-18T14:31:45;4.30;;;2.60;;
13279;SDS011;6708;49.814;8.652;2023-02-18T14:34:36;1.47;;;1.37;;
13279;SDS011;6708;49.814;8.652;2023-02-18T14:37:20;1.40;;;1.30;;
13279;SDS011;6708;49.814;8.652;2023-02-18T14:40:14;1.50;;;0.93;;
13279;SDS011;6708;49.814;8.652;2023-02-18T14:42:51;1.37;;;1.27;;
13279;SDS011;6708;49.814;8.652;2023-02-18T14:45:31;1.43;;;1.10;;
13279;SDS011;6708;49.814;8.652;2023-02-18T14:48:13;1.63;;;1.40;;
13279;SDS011;6708;49.814;8.652;2023-02-18T14:50:52;1.33;;;1.23;;
13279;SDS011;6708;49.814;8.652;2023-02-18T14:53:21;3.20;;;1.70;;
13279;SDS011;6708;49.814;8.652;2023-02-18T14:55:53;2.50;;;2.40;;
13279;SDS011;6708;49.814;8.652;2023-02-18T14:58:27;3.33;;;2.67;;
13279;SDS011;6708;49.814;8.652;2023-02-18T15:00:57;2.33;;;2.23;;
13279;SDS011;6708;49.814;8.652;2023-02-18T15:03:27;3.20;;;1.97;;
13279;SDS011;6708;49.814;8.652;2023-02-18T15:05:55;2.23;;;1.97;;
13279;SDS011;6708;49.814;8.652;2023-02-18T15:08:24;2.30;;;1.67;;
13279;SDS011;6708;49.814;8.652;2023-02-18T15:10:57;3.00;;;2.80;;
13279;SDS011;6708;49.814;8.652;2023-02-18T15:13:28;2.93;;;1.53;;
13279;SDS011;6708;49.814;8.652;2023-02-18T15:15:58;1.50;;;1.33;;
13279;SDS011;6708;49.814;8.652;2023-02-18T15:18:29;1.50;;;1.40;;
13279;SDS011;6708;49.814;8.652;2023-02-18T15:21:00;3.77;;;0.90;;
13279;SDS011;6708;49.814;8.652;2023-02-18T15:23:29;3.53;;;1.57;;
13279;SDS011;6708;49.814;8.652;2023-02-18T15:26:01;1.10;;;1.10;;
13279;SDS011;6708;49.814;8.652;2023-02-18T15:28:31;0.90;;;0.90;;
13279;SDS011;6708;49.814;8.652;2023-02-18T15:31:01;2.23;;;1.20;;
13279;SDS011;6708;49.814;8.652;2023-02-18T15:33:30;1.40;;;1.30;;
13279;SDS011;6708;49.814;8.652;2023-02-18T15:35:59;0.97;;;0.97;;
13279;SDS011;6708;49.814;8.652;2023-02-18T15:38:28;0.90;;;0.90;;
13279;SDS011;6708;49.814;8.652;2023-02-18T15:41:00;1.03;;;1.03;;
13279;SDS011;6708;49.814;8.652;2023-02-18T15:43:29;4.57;;;1.73;;
13279;SDS011;6708;49.814;8.652;2023-02-18T15:46:11;1.23;;;1.10;;
13279;SDS011;6708;49.814;8.652;2023-02-18T15:48:42;2.00;;;1.30;;
13279;SDS011;6708;49.814;8.652;2023-02-18T15:51:13;1.00;;;0.90;;
13279;SDS011;6708;49.814;8.652;2023-02-18T15:53:42;1.10;;;1.10;;
13279;SDS011;6708;49.814;8.652;2023-02-18T15:56:17;1.50;;;1.30;;
13279;SDS011;6708;49.814;8.652;2023-02-18T15:58:49;1.43;;;1.33;;